sensor_id;sensor_type;location;lat;lon;timestamp;pressure;altitude;pressure_sealevel;temperature;humidity
53300;BME280;39187;48.476;8.310;2023-02-28T00:00:13;91447.19;;;-6.82;93.18
53300;BME280;39187;48.476;8.310;2023-02-28T00:02:43;91457.13;;;-6.67;92.94
53300;BME280;39187;48.476;8.310;2023-02-28T00:05:10;91449.34;;;-6.76;92.70
53300;BME280;39187;48.476;8.310;2023-02-28T00:07:37;91447.84;;;-6.60;92.36
53300;BME280;39187;48.476;8.310;2023-02-28T00:10:05;91440.97;;;-6.64;92.60
53300;BME280;39187;48.476;8.310;2023-02-28T00:12:33;91447.69;;;-6.46;91.67
53300;BME280;39187;48.476;8.310;2023-02-28T00:14:58;91450.25;;;-6.72;93.33
53300;BME280;39187;48.476;8.310;2023-02-28T00:17:24;91450.41;;;-6.68;93.63
53300;BME280;39187;48.476;8.310;2023-02-28T00:19:50;91440.69;;;-6.63;93.65
53300;BME280;39187;48.476;8.310;2023-02-28T00:22:18;91442.81;;;-6.73;93.87
53300;BME280;39187;48.476;8.310;2023-02-28T00:24:44;91437.66;;;-6.56;92.95
53300;BME280;39187;48.476;8.310;2023-02-28T00:27:10;91441.28;;;-6.57;93.80
53300;BME280;39187;48.476;8.310;2023-02-28T00:29:36;91431.56;;;-6.60;93.83
53300;BME280;39187;48.476;8.310;2023-02-28T00:32:03;91440.38;;;-6.70;93.90
53300;BME280;39187;48.476;8.310;2023-02-28T00:34:29;91441.25;;;-6.83;94.90
53300;BME280;39187;48.476;8.310;2023-02-28T00:36:54;91442.22;;;-6.62;94.34
53300;BME280;39187;48.476;8.310;2023-02-28T00:39:20;91445.84;;;-6.63;94.12
53300;BME280;39187;48.476;8.310;2023-02-28T00:41:45;91439.00;;;-6.67;94.88
53300;BME280;39187;48.476;8.310;2023-02-28T00:44:11;91457.88;;;-6.67;94.28
53300;BME280;39187;48.476;8.310;2023-02-28T00:46:36;91453.75;;;-6.59;95.25
53300;BME280;39187;48.476;8.310;2023-02-28T00:49:02;91419.50;;;-6.65;94.68
53300;BME280;39187;48.476;8.310;2023-02-28T00:51:28;91425.13;;;-6.71;95.25
53300;BME280;39187;48.476;8.310;2023-02-28T00:53:53;91433.50;;;-6.74;95.28
53300;BME280;39187;48.476;8.310;2023-02-28T00:56:19;91447.91;;;-6.91;96.34
53300;BME280;39187;48.476;8.310;2023-02-28T00:58:45;91420.28;;;-6.64;95.40
53300;BME280;39187;48.476;8.310;2023-02-28T01:01:10;91426.84;;;-6.67;95.52
53300;BME280;39187;48.476;8.310;2023-02-28T01:03:36;91439.09;;;-6.90;96.49
53300;BME280;39187;48.476;8.310;2023-02-28T01:06:01;91449.00;;;-6.92;96.91
53300;BME280;39187;48.476;8.310;2023-02-28T01:08:27;91425.28;;;-6.76;96.55
53300;BME280;39187;48.476;8.310;2023-02-28T01:10:53;91431.84;;;-6.79;96.38
53300;BME280;39187;48.476;8.310;2023-02-28T01:13:19;91437.47;;;-6.85;96.95
53300;BME280;39187;48.476;8.310;2023-02-28T01:15:50;91434.59;;;-6.67;97.29
53300;BME280;39187;48.476;8.310;2023-02-28T01:18:17;91460.41;;;-6.93;97.78
53300;BME280;39187;48.476;8.310;2023-02-28T01:20:42;91432.53;;;-6.96;97.74
53300;BME280;39187;48.476;8.310;2023-02-28T01:23:08;91433.19;;;-6.81;97.52
53300;BME280;39187;48.476;8.310;2023-02-28T01:25:34;91423.75;;;-6.86;97.55
53300;BME280;39187;48.476;8.310;2023-02-28T01:28:00;91428.47;;;-6.88;98.65
53300;BME280;39187;48.476;8.310;2023-02-28T01:30:25;91428.31;;;-6.92;97.59
53300;BME280;39187;48.476;8.310;2023-02-28T01:32:51;91435.50;;;-6.63;97.13
53300;BME280;39187;48.476;8.310;2023-02-28T01:35:19;91429.88;;;-6.73;96.96
53300;BME280;39187;48.476;8.310;2023-02-28T01:37:45;91422.88;;;-6.73;97.71
53300;BME280;39187;48.476;8.310;2023-02-28T01:40:11;91424.06;;;-6.88;98.61
53300;BME280;39187;48.476;8.310;2023-02-28T01:42:37;91423.88;;;-6.91;98.76
53300;BME280;39187;48.476;8.310;2023-02-28T01:45:04;91421.47;;;-6.88;98.14
53300;BME280;39187;48.476;8.310;2023-02-28T01:47:35;91430.16;;;-6.75;98.88
53300;BME280;39187;48.476;8.310;2023-02-28T01:50:05;91426.47;;;-6.91;99.13
53300;BME280;39187;48.476;8.310;2023-02-28T01:52:31;91427.84;;;-6.94;100.00
53300;BME280;39187;48.476;8.310;2023-02-28T01:54:59;91422.06;;;-6.91;99.51
53300;BME280;39187;48.476;8.310;2023-02-28T01:57:31;91414.63;;;-6.75;99.22
53300;BME280;39187;48.476;8.310;2023-02-28T02:00:09;91416.28;;;-6.88;100.00
53300;BME280;39187;48.476;8.310;2023-02-28T02:02:36;91422.38;;;-6.83;99.85
53300;BME280;39187;48.476;8.310;2023-02-28T02:05:08;91438.19;;;-6.94;100.00
53300;BME280;39187;48.476;8.310;2023-02-28T02:07:38;91424.97;;;-6.75;99.64
53300;BME280;39187;48.476;8.310;2023-02-28T02:10:11;91418.25;;;-6.93;100.00
53300;BME280;39187;48.476;8.310;2023-02-28T02:19:14;91411.56;;;-6.94;100.00
53300;BME280;39187;48.476;8.310;2023-02-28T02:22:17;91408.03;;;-7.07;100.00
53300;BME280;39187;48.476;8.310;2023-02-28T02:28:11;91399.22;;;-7.06;100.00
53300;BME280;39187;48.476;8.310;2023-02-28T02:31:08;91406.63;;;-7.21;100.00
53300;BME280;39187;48.476;8.310;2023-02-28T02:34:21;91398.19;;;-6.88;100.00
53300;BME280;39187;48.476;8.310;2023-02-28T02:42:15;91397.84;;;-7.03;100.00
53300;BME280;39187;48.476;8.310;2023-02-28T02:44:58;91407.56;;;-7.09;100.00
53300;BME280;39187;48.476;8.310;2023-02-28T02:47:28;91407.03;;;-6.80;100.00
53300;BME280;39187;48.476;8.310;2023-02-28T02:49:58;91408.47;;;-7.13;100.00
53300;BME280;39187;48.476;8.310;2023-02-28T02:52:32;91406.25;;;-6.72;100.00
53300;BME280;39187;48.476;8.310;2023-02-28T02:55:02;91409.00;;;-6.85;100.00
53300;BME280;39187;48.476;8.310;2023-02-28T02:57:58;91406.50;;;-7.08;100.00
53300;BME280;39187;48.476;8.310;2023-02-28T03:00:31;91406.06;;;-7.01;100.00
53300;BME280;39187;48.476;8.310;2023-02-28T03:02:58;91409.28;;;-6.87;100.00
53300;BME280;39187;48.476;8.310;2023-02-28T03:05:47;91413.50;;;-7.17;100.00
53300;BME280;39187;48.476;8.310;2023-02-28T03:08:14;91406.31;;;-7.20;100.00
53300;BME280;39187;48.476;8.310;2023-02-28T03:10:49;91409.53;;;-7.14;100.00
53300;BME280;39187;48.476;8.310;2023-02-28T03:13:47;91399.03;;;-7.09;100.00
53300;BME280;39187;48.476;8.310;2023-02-28T03:16:28;91403.50;;;-6.84;100.00
53300;BME280;39187;48.476;8.310;2023-02-28T03:24:01;91404.34;;;-7.14;100.00
53300;BME280;39187;48.476;8.310;2023-02-28T03:26:29;91391.59;;;-7.02;100.00
53300;BME280;39187;48.476;8.310;2023-02-28T03:29:03;91390.97;;;-7.08;100.00
53300;BME280;39187;48.476;8.310;2023-02-28T03:31:36;91393.72;;;-7.13;100.00
53300;BME280;39187;48.476;8.310;2023-02-28T03:34:22;91404.75;;;-7.30;100.00
53300;BME280;39187;48.476;8.310;2023-02-28T03:36:53;91382.13;;;-7.15;100.00
53300;BME280;39187;48.476;8.310;2023-02-28T03:39:28;91390.97;;;-7.16;100.00
53300;BME280;39187;48.476;8.310;2023-02-28T03:41:59;91394.16;;;-7.19;100.00
53300;BME280;39187;48.476;8.310;2023-02-28T03:44:45;91374.56;;;-7.03;100.00
53300;BME280;39187;48.476;8.310;2023-02-28T03:47:28;91390.16;;;-7.43;100.00
53300;BME280;39187;48.476;8.310;2023-02-28T03:50:00;91388.63;;;-7.35;100.00
53300;BME280;39187;48.476;8.310;2023-02-28T03:52:32;91391.72;;;-7.24;100.00
53300;BME280;39187;48.476;8.310;2023-02-28T03:55:02;91389.19;;;-7.47;100.00
53300;BME280;39187;48.476;8.310;2023-02-28T04:00:10;91391.09;;;-7.30;100.00
53300;BME280;39187;48.476;8.310;2023-02-28T04:02:37;91398.16;;;-7.53;100.00
53300;BME280;39187;48.476;8.310;2023-02-28T04:05:03;91398.25;;;-7.27;100.00
53300;BME280;39187;48.476;8.310;2023-02-28T04:07:32;91395.13;;;-7.46;100.00
53300;BME280;39187;48.476;8.310;2023-02-28T04:09:58;91389.25;;;-7.38;100.00
53300;BME280;39187;48.476;8.310;2023-02-28T04:12:24;91382.91;;;-7.15;100.00
53300;BME280;39187;48.476;8.310;2023-02-28T04:14:50;91391.63;;;-7.50;100.00
53300;BME280;39187;48.476;8.310;2023-02-28T04:17:16;91384.97;;;-7.34;100.00
53300;BME280;39187;48.476;8.310;2023-02-28T04:19:42;91390.28;;;-7.39;100.00
53300;BME280;39187;48.476;8.310;2023-02-28T04:22:08;91401.06;;;-7.46;100.00
53300;BME280;39187;48.476;8.310;2023-02-28T04:24:34;91389.13;;;-7.16;100.00
53300;BME280;39187;48.476;8.310;2023-02-28T04:26:59;91393.69;;;-7.21;100.00
53300;BME280;39187;48.476;8.310;2023-02-28T04:29:30;91395.50;;;-7.22;100.00
53300;BME280;39187;48.476;8.310;2023-02-28T04:31:58;91391.25;;;-7.26;100.00
53300;BME280;39187;48.476;8.310;2023-02-28T04:34:27;91390.00;;;-7.38;100.00
53300;BME280;39187;48.476;8.310;2023-02-28T04:36:54;91397.91;;;-7.43;100.00
53300;BME280;39187;48.476;8.310;2023-02-28T04:39:21;91386.72;;;-7.12;100.00
53300;BME280;39187;48.476;8.310;2023-02-28T04:41:47;91411.25;;;-7.49;100.00
53300;BME280;39187;48.476;8.310;2023-02-28T04:44:13;91388.41;;;-7.56;100.00
53300;BME280;39187;48.476;8.310;2023-02-28T04:46:39;91388.47;;;-7.39;100.00
53300;BME280;39187;48.476;8.310;2023-02-28T04:49:04;91394.41;;;-7.30;100.00
53300;BME280;39187;48.476;8.310;2023-02-28T04:51:30;91416.16;;;-7.39;100.00
53300;BME280;39187;48.476;8.310;2023-02-28T04:53:56;91390.59;;;-7.41;100.00
53300;BME280;39187;48.476;8.310;2023-02-28T04:56:22;91401.28;;;-7.25;100.00
53300;BME280;39187;48.476;8.310;2023-02-28T04:58:48;91400.31;;;-7.46;100.00
53300;BME280;39187;48.476;8.310;2023-02-28T05:01:26;91403.69;;;-7.29;100.00
53300;BME280;39187;48.476;8.310;2023-02-28T05:03:54;91397.56;;;-7.41;100.00
53300;BME280;39187;48.476;8.310;2023-02-28T05:06:21;91400.47;;;-7.43;100.00
53300;BME280;39187;48.476;8.310;2023-02-28T05:08:48;91392.72;;;-7.43;100.00
53300;BME280;39187;48.476;8.310;2023-02-28T05:13:44;91406.47;;;-7.25;100.00
53300;BME280;39187;48.476;8.310;2023-02-28T05:16:10;91405.50;;;-7.38;100.00
53300;BME280;39187;48.476;8.310;2023-02-28T05:18:36;91392.78;;;-7.25;100.00
53300;BME280;39187;48.476;8.310;2023-02-28T05:21:02;91391.22;;;-7.35;100.00
53300;BME280;39187;48.476;8.310;2023-02-28T05:23:28;91401.53;;;-7.35;100.00
53300;BME280;39187;48.476;8.310;2023-02-28T05:25:54;91396.13;;;-7.25;100.00
53300;BME280;39187;48.476;8.310;2023-02-28T05:28:20;91383.78;;;-7.37;100.00
53300;BME280;39187;48.476;8.310;2023-02-28T05:30:46;91390.72;;;-7.46;100.00
53300;BME280;39187;48.476;8.310;2023-02-28T05:33:12;91392.41;;;-7.50;100.00
53300;BME280;39187;48.476;8.310;2023-02-28T05:35:42;91389.81;;;-7.50;100.00
53300;BME280;39187;48.476;8.310;2023-02-28T05:38:10;91392.34;;;-7.58;100.00
53300;BME280;39187;48.476;8.310;2023-02-28T05:40:38;91387.59;;;-7.25;100.00
53300;BME280;39187;48.476;8.310;2023-02-28T05:43:04;91394.13;;;-7.37;100.00
53300;BME280;39187;48.476;8.310;2023-02-28T05:45:29;91392.69;;;-7.51;100.00
53300;BME280;39187;48.476;8.310;2023-02-28T05:47:55;91402.50;;;-7.31;100.00
53300;BME280;39187;48.476;8.310;2023-02-28T05:50:21;91399.28;;;-7.28;100.00
53300;BME280;39187;48.476;8.310;2023-02-28T05:52:53;91386.88;;;-7.09;100.00
53300;BME280;39187;48.476;8.310;2023-02-28T05:55:18;91387.91;;;-7.27;100.00
53300;BME280;39187;48.476;8.310;2023-02-28T05:57:44;91402.75;;;-7.41;100.00
53300;BME280;39187;48.476;8.310;2023-02-28T06:00:10;91388.81;;;-7.32;100.00
53300;BME280;39187;48.476;8.310;2023-02-28T06:02:38;91411.13;;;-7.44;100.00
53300;BME280;39187;48.476;8.310;2023-02-28T06:05:07;91406.38;;;-7.51;100.00
53300;BME280;39187;48.476;8.310;2023-02-28T06:07:37;91422.41;;;-7.23;100.00
53300;BME280;39187;48.476;8.310;2023-02-28T06:10:03;91420.28;;;-7.30;100.00
53300;BME280;39187;48.476;8.310;2023-02-28T06:12:29;91417.69;;;-7.30;100.00
53300;BME280;39187;48.476;8.310;2023-02-28T06:14:54;91422.31;;;-7.09;100.00
53300;BME280;39187;48.476;8.310;2023-02-28T06:17:20;91415.38;;;-7.40;100.00
53300;BME280;39187;48.476;8.310;2023-02-28T06:19:45;91413.56;;;-7.39;100.00
53300;BME280;39187;48.476;8.310;2023-02-28T06:22:11;91421.19;;;-7.34;100.00
53300;BME280;39187;48.476;8.310;2023-02-28T06:24:37;91413.84;;;-7.41;100.00
53300;BME280;39187;48.476;8.310;2023-02-28T06:27:02;91431.19;;;-7.41;100.00
53300;BME280;39187;48.476;8.310;2023-02-28T06:29:32;91420.69;;;-7.45;100.00
53300;BME280;39187;48.476;8.310;2023-02-28T06:31:58;91431.59;;;-7.17;100.00
53300;BME280;39187;48.476;8.310;2023-02-28T06:34:23;91422.59;;;-7.19;100.00
53300;BME280;39187;48.476;8.310;2023-02-28T06:36:50;91430.31;;;-7.37;100.00
53300;BME280;39187;48.476;8.310;2023-02-28T06:39:16;91437.94;;;-7.23;100.00
53300;BME280;39187;48.476;8.310;2023-02-28T06:41:42;91450.72;;;-7.57;100.00
53300;BME280;39187;48.476;8.310;2023-02-28T06:44:17;91442.66;;;-7.25;100.00
53300;BME280;39187;48.476;8.310;2023-02-28T06:46:44;91447.41;;;-7.10;100.00
53300;BME280;39187;48.476;8.310;2023-02-28T06:49:10;91440.25;;;-7.13;100.00
53300;BME280;39187;48.476;8.310;2023-02-28T06:51:38;91441.47;;;-7.19;100.00
53300;BME280;39187;48.476;8.310;2023-02-28T06:54:04;91439.75;;;-7.32;100.00
53300;BME280;39187;48.476;8.310;2023-02-28T06:56:30;91450.41;;;-7.25;100.00
53300;BME280;39187;48.476;8.310;2023-02-28T06:58:56;91442.91;;;-7.35;100.00
53300;BME280;39187;48.476;8.310;2023-02-28T07:01:22;91448.34;;;-7.45;100.00
53300;BME280;39187;48.476;8.310;2023-02-28T07:03:49;91451.84;;;-7.50;100.00
53300;BME280;39187;48.476;8.310;2023-02-28T07:06:24;91434.56;;;-7.32;100.00
53300;BME280;39187;48.476;8.310;2023-02-28T07:08:51;91456.25;;;-7.11;100.00
53300;BME280;39187;48.476;8.310;2023-02-28T07:11:18;91454.41;;;-7.19;100.00
53300;BME280;39187;48.476;8.310;2023-02-28T07:13:44;91498.59;;;-7.29;100.00
53300;BME280;39187;48.476;8.310;2023-02-28T07:16:10;91458.13;;;-6.94;100.00
53300;BME280;39187;48.476;8.310;2023-02-28T07:18:37;91457.78;;;-7.01;100.00
53300;BME280;39187;48.476;8.310;2023-02-28T07:21:04;91471.16;;;-7.08;100.00
53300;BME280;39187;48.476;8.310;2023-02-28T07:23:30;91463.69;;;-7.09;100.00
53300;BME280;39187;48.476;8.310;2023-02-28T07:25:56;91459.13;;;-7.12;100.00
53300;BME280;39187;48.476;8.310;2023-02-28T07:28:22;91464.16;;;-7.07;100.00
53300;BME280;39187;48.476;8.310;2023-02-28T07:30:47;91461.16;;;-7.01;100.00
53300;BME280;39187;48.476;8.310;2023-02-28T07:33:13;91466.59;;;-7.11;100.00
53300;BME280;39187;48.476;8.310;2023-02-28T07:35:39;91465.78;;;-7.20;100.00
53300;BME280;39187;48.476;8.310;2023-02-28T07:38:05;91464.94;;;-7.07;100.00
53300;BME280;39187;48.476;8.310;2023-02-28T07:40:33;91470.16;;;-6.90;100.00
53300;BME280;39187;48.476;8.310;2023-02-28T07:43:00;91459.91;;;-7.12;100.00
53300;BME280;39187;48.476;8.310;2023-02-28T07:45:26;91471.50;;;-7.01;100.00
53300;BME280;39187;48.476;8.310;2023-02-28T07:47:54;91464.34;;;-6.95;100.00
53300;BME280;39187;48.476;8.310;2023-02-28T07:50:20;91464.16;;;-7.07;100.00
53300;BME280;39187;48.476;8.310;2023-02-28T07:52:45;91476.38;;;-6.99;100.00
53300;BME280;39187;48.476;8.310;2023-02-28T07:55:11;91466.88;;;-7.12;100.00
53300;BME280;39187;48.476;8.310;2023-02-28T07:57:37;91489.34;;;-7.21;100.00
53300;BME280;39187;48.476;8.310;2023-02-28T08:00:08;91478.66;;;-6.98;100.00
53300;BME280;39187;48.476;8.310;2023-02-28T08:02:37;91482.56;;;-7.09;100.00
53300;BME280;39187;48.476;8.310;2023-02-28T08:05:04;91473.41;;;-7.15;100.00
53300;BME280;39187;48.476;8.310;2023-02-28T08:07:29;91475.66;;;-6.82;100.00
53300;BME280;39187;48.476;8.310;2023-02-28T08:09:55;91482.75;;;-7.05;100.00
53300;BME280;39187;48.476;8.310;2023-02-28T08:12:20;91491.31;;;-6.88;100.00
53300;BME280;39187;48.476;8.310;2023-02-28T08:14:46;91491.91;;;-6.91;100.00
53300;BME280;39187;48.476;8.310;2023-02-28T08:17:12;91492.25;;;-6.75;100.00
53300;BME280;39187;48.476;8.310;2023-02-28T08:19:37;91481.88;;;-6.92;100.00
53300;BME280;39187;48.476;8.310;2023-02-28T08:22:03;91491.47;;;-6.93;100.00
53300;BME280;39187;48.476;8.310;2023-02-28T08:24:28;91489.88;;;-7.02;100.00
53300;BME280;39187;48.476;8.310;2023-02-28T08:26:54;91492.75;;;-7.04;100.00
53300;BME280;39187;48.476;8.310;2023-02-28T08:29:20;91490.34;;;-7.00;100.00
53300;BME280;39187;48.476;8.310;2023-02-28T08:31:46;91491.28;;;-6.96;100.00
53300;BME280;39187;48.476;8.310;2023-02-28T08:34:13;91489.72;;;-6.66;100.00
53300;BME280;39187;48.476;8.310;2023-02-28T08:36:39;91490.44;;;-6.74;100.00
53300;BME280;39187;48.476;8.310;2023-02-28T08:39:05;91495.31;;;-6.73;100.00
53300;BME280;39187;48.476;8.310;2023-02-28T08:41:31;91494.97;;;-6.89;100.00
53300;BME280;39187;48.476;8.310;2023-02-28T08:43:57;91490.84;;;-6.90;100.00
53300;BME280;39187;48.476;8.310;2023-02-28T08:46:23;91495.66;;;-6.57;100.00
53300;BME280;39187;48.476;8.310;2023-02-28T08:48:52;91496.34;;;-6.82;100.00
53300;BME280;39187;48.476;8.310;2023-02-28T08:51:18;91495.09;;;-6.94;100.00
53300;BME280;39187;48.476;8.310;2023-02-28T08:53:47;91494.88;;;-6.66;100.00
53300;BME280;39187;48.476;8.310;2023-02-28T08:56:15;91500.31;;;-6.85;100.00
53300;BME280;39187;48.476;8.310;2023-02-28T08:58:42;91500.63;;;-6.78;100.00
53300;BME280;39187;48.476;8.310;2023-02-28T09:01:11;91503.91;;;-6.46;100.00
53300;BME280;39187;48.476;8.310;2023-02-28T09:03:37;91509.38;;;-6.39;100.00
53300;BME280;39187;48.476;8.310;2023-02-28T09:06:04;91507.69;;;-6.61;100.00
53300;BME280;39187;48.476;8.310;2023-02-28T09:08:30;91497.38;;;-6.35;100.00
53300;BME280;39187;48.476;8.310;2023-02-28T09:10:57;91511.78;;;-6.60;100.00
53300;BME280;39187;48.476;8.310;2023-02-28T09:13:26;91519.59;;;-6.43;100.00
53300;BME280;39187;48.476;8.310;2023-02-28T09:15:53;91511.69;;;-6.38;100.00
53300;BME280;39187;48.476;8.310;2023-02-28T09:18:19;91513.34;;;-6.33;100.00
53300;BME280;39187;48.476;8.310;2023-02-28T09:20:44;91510.91;;;-6.38;100.00
53300;BME280;39187;48.476;8.310;2023-02-28T09:23:12;91512.63;;;-6.34;100.00
53300;BME280;39187;48.476;8.310;2023-02-28T09:25:46;91509.25;;;-6.26;100.00
53300;BME280;39187;48.476;8.310;2023-02-28T09:28:11;91524.19;;;-6.31;100.00
53300;BME280;39187;48.476;8.310;2023-02-28T09:30:37;91512.28;;;-6.32;100.00
53300;BME280;39187;48.476;8.310;2023-02-28T09:33:03;91523.59;;;-6.11;100.00
53300;BME280;39187;48.476;8.310;2023-02-28T09:35:29;91533.66;;;-6.10;100.00
53300;BME280;39187;48.476;8.310;2023-02-28T09:37:56;91531.19;;;-6.40;100.00
53300;BME280;39187;48.476;8.310;2023-02-28T09:40:25;91522.97;;;-6.25;100.00
53300;BME280;39187;48.476;8.310;2023-02-28T09:42:53;91541.59;;;-5.97;100.00
53300;BME280;39187;48.476;8.310;2023-02-28T09:45:33;91523.91;;;-6.13;100.00
53300;BME280;39187;48.476;8.310;2023-02-28T09:48:04;91538.34;;;-6.29;100.00
53300;BME280;39187;48.476;8.310;2023-02-28T09:50:36;91525.44;;;-6.03;100.00
53300;BME280;39187;48.476;8.310;2023-02-28T09:53:19;91524.38;;;-6.02;100.00
53300;BME280;39187;48.476;8.310;2023-02-28T09:55:55;91528.16;;;-6.25;100.00
53300;BME280;39187;48.476;8.310;2023-02-28T10:01:21;91537.94;;;-6.05;100.00
53300;BME280;39187;48.476;8.310;2023-02-28T10:04:04;91530.13;;;-5.79;100.00
53300;BME280;39187;48.476;8.310;2023-02-28T10:06:49;91536.25;;;-6.10;100.00
53300;BME280;39187;48.476;8.310;2023-02-28T10:09:25;91526.63;;;-6.18;100.00
53300;BME280;39187;48.476;8.310;2023-02-28T10:11:53;91538.84;;;-6.10;100.00
53300;BME280;39187;48.476;8.310;2023-02-28T10:14:24;91543.38;;;-5.81;100.00
53300;BME280;39187;48.476;8.310;2023-02-28T10:16:55;91547.22;;;-6.21;100.00
53300;BME280;39187;48.476;8.310;2023-02-28T10:19:30;91543.44;;;-5.89;100.00
53300;BME280;39187;48.476;8.310;2023-02-28T10:22:01;91548.13;;;-5.83;100.00
53300;BME280;39187;48.476;8.310;2023-02-28T10:24:34;91542.19;;;-5.83;100.00
53300;BME280;39187;48.476;8.310;2023-02-28T10:27:14;91557.59;;;-5.78;100.00
53300;BME280;39187;48.476;8.310;2023-02-28T10:29:43;91544.63;;;-5.78;100.00
53300;BME280;39187;48.476;8.310;2023-02-28T10:32:14;91555.75;;;-5.60;100.00
53300;BME280;39187;48.476;8.310;2023-02-28T10:34:41;91557.28;;;-5.77;100.00
53300;BME280;39187;48.476;8.310;2023-02-28T10:37:06;91547.81;;;-5.38;100.00
53300;BME280;39187;48.476;8.310;2023-02-28T10:39:43;91543.69;;;-5.82;100.00
53300;BME280;39187;48.476;8.310;2023-02-28T10:42:21;91562.00;;;-5.53;100.00
53300;BME280;39187;48.476;8.310;2023-02-28T10:44:47;91588.84;;;-5.66;100.00
53300;BME280;39187;48.476;8.310;2023-02-28T10:47:17;91553.63;;;-5.58;100.00
53300;BME280;39187;48.476;8.310;2023-02-28T10:49:50;91558.31;;;-5.69;100.00
53300;BME280;39187;48.476;8.310;2023-02-28T10:52:36;91561.53;;;-5.55;100.00
53300;BME280;39187;48.476;8.310;2023-02-28T10:55:23;91565.50;;;-5.57;100.00
53300;BME280;39187;48.476;8.310;2023-02-28T10:57:51;91572.69;;;-5.46;100.00
53300;BME280;39187;48.476;8.310;2023-02-28T11:00:23;91572.06;;;-5.51;100.00
53300;BME280;39187;48.476;8.310;2023-02-28T11:02:51;91559.72;;;-5.54;100.00
53300;BME280;39187;48.476;8.310;2023-02-28T11:05:31;91563.63;;;-5.22;100.00
53300;BME280;39187;48.476;8.310;2023-02-28T11:10:30;91569.59;;;-5.31;100.00
53300;BME280;39187;48.476;8.310;2023-02-28T11:13:00;91572.94;;;-5.13;100.00
53300;BME280;39187;48.476;8.310;2023-02-28T11:15:29;91570.22;;;-5.42;100.00
53300;BME280;39187;48.476;8.310;2023-02-28T11:18:00;91572.81;;;-5.59;100.00
53300;BME280;39187;48.476;8.310;2023-02-28T11:20:32;91568.84;;;-5.40;100.00
53300;BME280;39187;48.476;8.310;2023-02-28T11:23:01;91575.72;;;-5.61;100.00
53300;BME280;39187;48.476;8.310;2023-02-28T11:25:33;91568.09;;;-5.32;100.00
53300;BME280;39187;48.476;8.310;2023-02-28T11:28:05;91566.34;;;-5.02;100.00
53300;BME280;39187;48.476;8.310;2023-02-28T11:30:34;91583.31;;;-5.21;100.00
53300;BME280;39187;48.476;8.310;2023-02-28T11:33:21;91587.94;;;-5.44;100.00
53300;BME280;39187;48.476;8.310;2023-02-28T11:35:48;91589.75;;;-5.45;100.00
53300;BME280;39187;48.476;8.310;2023-02-28T11:38:15;91596.00;;;-5.29;100.00
53300;BME280;39187;48.476;8.310;2023-02-28T11:40:58;91595.69;;;-5.36;100.00
53300;BME280;39187;48.476;8.310;2023-02-28T11:44:04;91590.81;;;-5.37;100.00
53300;BME280;39187;48.476;8.310;2023-02-28T11:46:59;91592.34;;;-5.36;100.00
53300;BME280;39187;48.476;8.310;2023-02-28T11:49:32;91586.69;;;-5.12;100.00
53300;BME280;39187;48.476;8.310;2023-02-28T11:52:06;91587.56;;;-5.00;100.00
53300;BME280;39187;48.476;8.310;2023-02-28T11:57:34;91578.72;;;-5.25;100.00
53300;BME280;39187;48.476;8.310;2023-02-28T12:00:38;91573.97;;;-5.05;100.00
53300;BME280;39187;48.476;8.310;2023-02-28T12:06:01;91568.78;;;-4.97;100.00
53300;BME280;39187;48.476;8.310;2023-02-28T12:08:53;91570.00;;;-5.03;100.00
53300;BME280;39187;48.476;8.310;2023-02-28T12:22:29;91576.25;;;-4.87;100.00
53300;BME280;39187;48.476;8.310;2023-02-28T12:27:42;91568.47;;;-5.04;100.00
53300;BME280;39187;48.476;8.310;2023-02-28T12:30:22;91569.59;;;-4.67;100.00
53300;BME280;39187;48.476;8.310;2023-02-28T12:32:55;91566.25;;;-4.67;100.00
53300;BME280;39187;48.476;8.310;2023-02-28T12:35:26;91563.31;;;-4.57;100.00
53300;BME280;39187;48.476;8.310;2023-02-28T12:38:10;91555.44;;;-4.11;100.00
53300;BME280;39187;48.476;8.310;2023-02-28T12:40:48;91569.09;;;-4.22;100.00
53300;BME280;39187;48.476;8.310;2023-02-28T12:43:17;91562.75;;;-4.04;100.00
53300;BME280;39187;48.476;8.310;2023-02-28T12:45:51;91559.13;;;-4.12;100.00
53300;BME280;39187;48.476;8.310;2023-02-28T12:48:31;91554.44;;;-3.77;100.00
53300;BME280;39187;48.476;8.310;2023-02-28T12:51:03;91554.16;;;-4.25;100.00
53300;BME280;39187;48.476;8.310;2023-02-28T12:58:42;91564.47;;;-3.87;99.09
53300;BME280;39187;48.476;8.310;2023-02-28T13:01:26;91553.63;;;-3.89;98.17
53300;BME280;39187;48.476;8.310;2023-02-28T13:09:38;91576.91;;;-3.93;99.10
53300;BME280;39187;48.476;8.310;2023-02-28T13:12:13;91560.38;;;-4.18;99.38
53300;BME280;39187;48.476;8.310;2023-02-28T13:14:39;91559.88;;;-4.11;99.38
53300;BME280;39187;48.476;8.310;2023-02-28T13:19:58;91562.69;;;-4.25;99.84
53300;BME280;39187;48.476;8.310;2023-02-28T13:28:13;91557.69;;;-3.80;98.18
53300;BME280;39187;48.476;8.310;2023-02-28T13:33:28;91560.78;;;-3.45;98.06
53300;BME280;39187;48.476;8.310;2023-02-28T13:36:10;91571.28;;;-3.53;96.15
53300;BME280;39187;48.476;8.310;2023-02-28T13:38:41;91567.09;;;-3.67;96.52
53300;BME280;39187;48.476;8.310;2023-02-28T13:44:18;91596.97;;;-3.52;94.12
53300;BME280;39187;48.476;8.310;2023-02-28T14:01:00;91585.56;;;-3.06;93.70
53300;BME280;39187;48.476;8.310;2023-02-28T14:08:34;91585.31;;;-3.13;93.09
53300;BME280;39187;48.476;8.310;2023-02-28T14:11:08;91582.28;;;-3.15;93.20
53300;BME280;39187;48.476;8.310;2023-02-28T14:13:39;91582.09;;;-3.10;94.00
53300;BME280;39187;48.476;8.310;2023-02-28T14:16:23;91585.97;;;-3.16;92.44
53300;BME280;39187;48.476;8.310;2023-02-28T14:18:50;91579.75;;;-2.91;91.97
53300;BME280;39187;48.476;8.310;2023-02-28T14:21:23;91594.84;;;-3.17;92.01
53300;BME280;39187;48.476;8.310;2023-02-28T14:37:51;91587.25;;;-2.89;90.57
53300;BME280;39187;48.476;8.310;2023-02-28T14:40:32;91571.63;;;-2.89;90.32
53300;BME280;39187;48.476;8.310;2023-02-28T14:43:00;91604.28;;;-2.92;90.30
53300;BME280;39187;48.476;8.310;2023-02-28T14:45:29;91580.03;;;-2.71;91.06
53300;BME280;39187;48.476;8.310;2023-02-28T14:47:56;91582.84;;;-2.76;89.60
53300;BME280;39187;48.476;8.310;2023-02-28T14:50:34;91590.31;;;-2.75;89.67
53300;BME280;39187;48.476;8.310;2023-02-28T14:53:01;91591.03;;;-2.54;89.84
53300;BME280;39187;48.476;8.310;2023-02-28T14:55:36;91584.41;;;-2.51;88.66